sensor_id;sensor_type;location;lat;lon;timestamp;pressure;altitude;pressure_sealevel;temperature;humidity
39141;BME280;24875;48.436;10.298;2023-03-22T00:00:07;96089.28;;;11.72;90.55
39141;BME280;24875;48.436;10.298;2023-03-22T00:02:37;96084.41;;;11.69;89.39
39141;BME280;24875;48.436;10.298;2023-03-22T00:05:04;96086.09;;;11.76;89.20
39141;BME280;24875;48.436;10.298;2023-03-22T00:07:31;96086.03;;;11.70;89.39
39141;BME280;24875;48.436;10.298;2023-03-22T00:09:57;96077.47;;;11.68;88.80
39141;BME280;24875;48.436;10.298;2023-03-22T00:12:25;96078.94;;;11.70;90.19
39141;BME280;24875;48.436;10.298;2023-03-22T00:14:51;96091.22;;;11.49;89.59
39141;BME280;24875;48.436;10.298;2023-03-22T00:17:19;96094.44;;;11.59;88.79
39141;BME280;24875;48.436;10.298;2023-03-22T00:19:47;96103.81;;;11.61;88.62
39141;BME280;24875;48.436;10.298;2023-03-22T00:22:13;96095.16;;;11.53;89.96
39141;BME280;24875;48.436;10.298;2023-03-22T00:24:40;96090.16;;;11.58;89.16
39141;BME280;24875;48.436;10.298;2023-03-22T00:27:06;96099.09;;;11.57;89.25
39141;BME280;24875;48.436;10.298;2023-03-22T00:29:34;96096.34;;;11.65;89.51
39141;BME280;24875;48.436;10.298;2023-03-22T00:32:01;96093.56;;;11.52;88.06
39141;BME280;24875;48.436;10.298;2023-03-22T00:34:29;96087.56;;;11.64;88.28
39141;BME280;24875;48.436;10.298;2023-03-22T00:36:56;96088.09;;;11.54;88.39
39141;BME280;24875;48.436;10.298;2023-03-22T00:39:22;96080.97;;;11.54;88.79
39141;BME280;24875;48.436;10.298;2023-03-22T00:41:49;96082.63;;;11.55;88.82
39141;BME280;24875;48.436;10.298;2023-03-22T00:44:16;96078.13;;;11.55;88.23
39141;BME280;24875;48.436;10.298;2023-03-22T00:46:44;96073.78;;;11.62;87.81
39141;BME280;24875;48.436;10.298;2023-03-22T00:49:10;96071.13;;;11.62;87.28
39141;BME280;24875;48.436;10.298;2023-03-22T00:51:36;96069.28;;;11.63;87.79
39141;BME280;24875;48.436;10.298;2023-03-22T00:54:03;96070.06;;;11.57;88.20
39141;BME280;24875;48.436;10.298;2023-03-22T00:56:29;96069.03;;;11.58;88.26
39141;BME280;24875;48.436;10.298;2023-03-22T00:58:58;96072.72;;;11.57;88.33
39141;BME280;24875;48.436;10.298;2023-03-22T01:01:24;96068.22;;;11.57;88.47
39141;BME280;24875;48.436;10.298;2023-03-22T01:03:52;96067.50;;;11.63;88.43
39141;BME280;24875;48.436;10.298;2023-03-22T01:06:19;96066.59;;;11.56;87.95
39141;BME280;24875;48.436;10.298;2023-03-22T01:08:45;96066.78;;;11.55;88.55
39141;BME280;24875;48.436;10.298;2023-03-22T01:11:15;96057.41;;;11.53;89.13
39141;BME280;24875;48.436;10.298;2023-03-22T01:13:42;96057.22;;;11.54;88.66
39141;BME280;24875;48.436;10.298;2023-03-22T01:16:10;96055.44;;;11.55;88.79
39141;BME280;24875;48.436;10.298;2023-03-22T01:18:37;96058.97;;;11.47;89.15
39141;BME280;24875;48.436;10.298;2023-03-22T01:21:05;96059.50;;;11.57;89.19
39141;BME280;24875;48.436;10.298;2023-03-22T01:23:32;96053.88;;;11.46;89.43
39141;BME280;24875;48.436;10.298;2023-03-22T01:25:58;96053.59;;;11.41;89.16
39141;BME280;24875;48.436;10.298;2023-03-22T01:28:25;96060.69;;;11.40;89.21
39141;BME280;24875;48.436;10.298;2023-03-22T01:30:53;96055.47;;;11.47;88.81
39141;BME280;24875;48.436;10.298;2023-03-22T01:33:19;96043.88;;;11.41;88.84
39141;BME280;24875;48.436;10.298;2023-03-22T01:35:46;96055.59;;;11.39;89.50
39141;BME280;24875;48.436;10.298;2023-03-22T01:38:14;96052.84;;;11.47;89.26
39141;BME280;24875;48.436;10.298;2023-03-22T01:40:40;96056.00;;;11.36;89.98
39141;BME280;24875;48.436;10.298;2023-03-22T01:43:12;96052.44;;;11.43;89.66
39141;BME280;24875;48.436;10.298;2023-03-22T01:45:41;96050.13;;;11.40;90.21
39141;BME280;24875;48.436;10.298;2023-03-22T01:48:13;96053.59;;;11.41;89.45
39141;BME280;24875;48.436;10.298;2023-03-22T01:50:44;96046.69;;;11.40;90.19
39141;BME280;24875;48.436;10.298;2023-03-22T01:53:15;96048.81;;;11.30;90.77
39141;BME280;24875;48.436;10.298;2023-03-22T01:55:44;96046.66;;;11.19;90.59
39141;BME280;24875;48.436;10.298;2023-03-22T01:58:11;96039.88;;;10.95;92.06
39141;BME280;24875;48.436;10.298;2023-03-22T02:00:40;96036.41;;;10.95;92.80
39141;BME280;24875;48.436;10.298;2023-03-22T02:03:07;96030.78;;;10.98;91.91
39141;BME280;24875;48.436;10.298;2023-03-22T02:05:34;96030.31;;;11.09;92.10
39141;BME280;24875;48.436;10.298;2023-03-22T02:08:01;96032.22;;;11.00;91.92
39141;BME280;24875;48.436;10.298;2023-03-22T02:10:30;96026.50;;;10.97;92.68
39141;BME280;24875;48.436;10.298;2023-03-22T02:13:11;96023.41;;;11.08;91.55
39141;BME280;24875;48.436;10.298;2023-03-22T02:15:43;96027.13;;;10.99;92.46
39141;BME280;24875;48.436;10.298;2023-03-22T02:18:20;96027.59;;;11.02;92.53
39141;BME280;24875;48.436;10.298;2023-03-22T02:21:03;96024.31;;;11.00;92.34
39141;BME280;24875;48.436;10.298;2023-03-22T02:27:23;96032.72;;;10.90;93.49
39141;BME280;24875;48.436;10.298;2023-03-22T02:29:59;96031.00;;;10.82;93.88
39141;BME280;24875;48.436;10.298;2023-03-22T02:32:46;96032.88;;;10.74;93.86
39141;BME280;24875;48.436;10.298;2023-03-22T02:35:26;96033.09;;;10.58;94.69
39141;BME280;24875;48.436;10.298;2023-03-22T02:38:10;96028.81;;;10.42;95.87
39141;BME280;24875;48.436;10.298;2023-03-22T02:40:46;96035.00;;;10.35;96.39
39141;BME280;24875;48.436;10.298;2023-03-22T02:43:21;96022.97;;;10.18;97.50
39141;BME280;24875;48.436;10.298;2023-03-22T02:45:59;96023.25;;;10.23;96.90
39141;BME280;24875;48.436;10.298;2023-03-22T02:48:30;96014.97;;;10.12;97.61
39141;BME280;24875;48.436;10.298;2023-03-22T02:51:03;96016.78;;;10.11;96.94
39141;BME280;24875;48.436;10.298;2023-03-22T02:53:35;96008.31;;;10.01;97.33
39141;BME280;24875;48.436;10.298;2023-03-22T02:56:10;96016.28;;;9.93;96.67
39141;BME280;24875;48.436;10.298;2023-03-22T02:58:39;96012.16;;;9.76;97.73
39141;BME280;24875;48.436;10.298;2023-03-22T03:01:15;96016.75;;;9.74;97.38
39141;BME280;24875;48.436;10.298;2023-03-22T03:03:45;96021.09;;;9.68;97.29
39141;BME280;24875;48.436;10.298;2023-03-22T03:06:16;96025.53;;;9.67;97.54
39141;BME280;24875;48.436;10.298;2023-03-22T03:08:45;96023.44;;;9.63;96.77
39141;BME280;24875;48.436;10.298;2023-03-22T03:11:17;96023.63;;;9.39;95.74
39141;BME280;24875;48.436;10.298;2023-03-22T03:13:45;96020.75;;;9.26;96.56
39141;BME280;24875;48.436;10.298;2023-03-22T03:16:13;96023.56;;;9.24;96.92
39141;BME280;24875;48.436;10.298;2023-03-22T03:18:46;96016.78;;;9.30;96.91
39141;BME280;24875;48.436;10.298;2023-03-22T03:21:23;96015.13;;;9.29;96.90
39141;BME280;24875;48.436;10.298;2023-03-22T03:24:04;96009.63;;;9.16;96.09
39141;BME280;24875;48.436;10.298;2023-03-22T03:26:42;96012.91;;;9.18;95.94
39141;BME280;24875;48.436;10.298;2023-03-22T03:29:13;96011.72;;;8.98;96.03
39141;BME280;24875;48.436;10.298;2023-03-22T03:31:45;96016.03;;;8.91;95.52
39141;BME280;24875;48.436;10.298;2023-03-22T03:34:19;96011.44;;;8.85;95.12
39141;BME280;24875;48.436;10.298;2023-03-22T03:36:52;96003.31;;;8.72;97.44
39141;BME280;24875;48.436;10.298;2023-03-22T03:39:23;96007.63;;;8.57;98.51
39141;BME280;24875;48.436;10.298;2023-03-22T03:41:54;96012.41;;;8.54;97.97
39141;BME280;24875;48.436;10.298;2023-03-22T03:44:22;96013.91;;;8.48;97.36
39141;BME280;24875;48.436;10.298;2023-03-22T03:46:50;96015.72;;;8.48;97.65
39141;BME280;24875;48.436;10.298;2023-03-22T03:49:18;96014.78;;;8.33;97.75
39141;BME280;24875;48.436;10.298;2023-03-22T03:51:49;96006.56;;;8.36;96.55
39141;BME280;24875;48.436;10.298;2023-03-22T03:54:16;96021.25;;;8.15;95.97
39141;BME280;24875;48.436;10.298;2023-03-22T03:56:43;96009.09;;;8.14;96.41
39141;BME280;24875;48.436;10.298;2023-03-22T03:59:13;96016.00;;;8.15;98.13
39141;BME280;24875;48.436;10.298;2023-03-22T04:01:41;96010.75;;;8.15;99.48
39141;BME280;24875;48.436;10.298;2023-03-22T04:04:15;96014.50;;;8.20;99.76
39141;BME280;24875;48.436;10.298;2023-03-22T04:06:41;96010.03;;;8.21;100.00
39141;BME280;24875;48.436;10.298;2023-03-22T04:09:08;96008.13;;;8.15;100.00
39141;BME280;24875;48.436;10.298;2023-03-22T04:11:36;96009.41;;;8.11;98.97
39141;BME280;24875;48.436;10.298;2023-03-22T04:14:02;96017.28;;;8.03;97.68
39141;BME280;24875;48.436;10.298;2023-03-22T04:16:30;96016.63;;;8.01;97.57
39141;BME280;24875;48.436;10.298;2023-03-22T04:18:56;96016.66;;;7.77;95.88
39141;BME280;24875;48.436;10.298;2023-03-22T04:21:23;96024.38;;;7.71;98.06
39141;BME280;24875;48.436;10.298;2023-03-22T04:23:49;96025.03;;;7.73;97.12
39141;BME280;24875;48.436;10.298;2023-03-22T04:26:16;96033.38;;;7.68;97.09
39141;BME280;24875;48.436;10.298;2023-03-22T04:28:42;96030.13;;;7.66;96.77
39141;BME280;24875;48.436;10.298;2023-03-22T04:31:09;96031.75;;;7.51;95.42
39141;BME280;24875;48.436;10.298;2023-03-22T04:33:37;96041.56;;;7.57;95.71
39141;BME280;24875;48.436;10.298;2023-03-22T04:36:05;96036.50;;;7.48;98.48
39141;BME280;24875;48.436;10.298;2023-03-22T04:38:34;96039.28;;;7.46;100.00
39141;BME280;24875;48.436;10.298;2023-03-22T04:41:01;96044.69;;;7.53;100.00
39141;BME280;24875;48.436;10.298;2023-03-22T04:43:29;96044.84;;;7.59;100.00
39141;BME280;24875;48.436;10.298;2023-03-22T04:45:59;96047.81;;;7.64;100.00
39141;BME280;24875;48.436;10.298;2023-03-22T04:48:25;96040.63;;;7.66;100.00
39141;BME280;24875;48.436;10.298;2023-03-22T04:50:55;96046.66;;;7.67;100.00
39141;BME280;24875;48.436;10.298;2023-03-22T04:53:21;96046.00;;;7.41;100.00
39141;BME280;24875;48.436;10.298;2023-03-22T04:55:51;96040.25;;;7.37;100.00
39141;BME280;24875;48.436;10.298;2023-03-22T04:58:18;96041.22;;;7.44;100.00
39141;BME280;24875;48.436;10.298;2023-03-22T05:00:47;96045.19;;;7.56;100.00
39141;BME280;24875;48.436;10.298;2023-03-22T05:03:13;96045.16;;;7.48;100.00
39141;BME280;24875;48.436;10.298;2023-03-22T05:05:48;96041.72;;;7.56;100.00
39141;BME280;24875;48.436;10.298;2023-03-22T05:08:17;96044.53;;;7.46;100.00
39141;BME280;24875;48.436;10.298;2023-03-22T05:10:43;96045.16;;;7.40;100.00
39141;BME280;24875;48.436;10.298;2023-03-22T05:13:10;96035.97;;;7.21;98.08
39141;BME280;24875;48.436;10.298;2023-03-22T05:15:37;96041.84;;;7.15;97.74
39141;BME280;24875;48.436;10.298;2023-03-22T05:18:06;96035.66;;;7.16;98.68
39141;BME280;24875;48.436;10.298;2023-03-22T05:20:33;96042.84;;;7.14;99.38
39141;BME280;24875;48.436;10.298;2023-03-22T05:22:59;96038.56;;;7.05;99.01
39141;BME280;24875;48.436;10.298;2023-03-22T05:25:28;96041.19;;;7.05;100.00
39141;BME280;24875;48.436;10.298;2023-03-22T05:27:54;96027.78;;;7.08;100.00
39141;BME280;24875;48.436;10.298;2023-03-22T05:30:25;96032.72;;;7.34;100.00
39141;BME280;24875;48.436;10.298;2023-03-22T05:32:56;96033.41;;;7.52;100.00
39141;BME280;24875;48.436;10.298;2023-03-22T05:35:24;96040.72;;;7.25;100.00
39141;BME280;24875;48.436;10.298;2023-03-22T05:37:50;96045.66;;;7.28;100.00
39141;BME280;24875;48.436;10.298;2023-03-22T05:40:17;96041.56;;;7.33;100.00
39141;BME280;24875;48.436;10.298;2023-03-22T05:42:45;96044.69;;;7.53;100.00
39141;BME280;24875;48.436;10.298;2023-03-22T05:45:12;96040.44;;;7.44;100.00
39141;BME280;24875;48.436;10.298;2023-03-22T05:47:38;96048.47;;;7.42;100.00
39141;BME280;24875;48.436;10.298;2023-03-22T05:50:06;96041.72;;;7.56;100.00
39141;BME280;24875;48.436;10.298;2023-03-22T05:52:33;96037.16;;;7.58;100.00
39141;BME280;24875;48.436;10.298;2023-03-22T05:55:00;96045.53;;;7.69;100.00
39141;BME280;24875;48.436;10.298;2023-03-22T05:57:27;96042.25;;;7.51;100.00
39141;BME280;24875;48.436;10.298;2023-03-22T05:59:55;96046.50;;;7.68;100.00
39141;BME280;24875;48.436;10.298;2023-03-22T06:02:22;96045.53;;;7.69;100.00
39141;BME280;24875;48.436;10.298;2023-03-22T06:04:49;96049.13;;;7.84;100.00
39141;BME280;24875;48.436;10.298;2023-03-22T06:07:16;96041.25;;;7.92;100.00
39141;BME280;24875;48.436;10.298;2023-03-22T06:09:43;96040.56;;;7.98;100.00
39141;BME280;24875;48.436;10.298;2023-03-22T06:12:10;96035.66;;;7.95;100.00
39141;BME280;24875;48.436;10.298;2023-03-22T06:14:36;96032.69;;;7.98;100.00
39141;BME280;24875;48.436;10.298;2023-03-22T06:17:04;96030.22;;;8.12;100.00
39141;BME280;24875;48.436;10.298;2023-03-22T06:19:31;96027.97;;;8.17;100.00
39141;BME280;24875;48.436;10.298;2023-03-22T06:21:57;96025.47;;;8.24;100.00
39141;BME280;24875;48.436;10.298;2023-03-22T06:24:24;96028.06;;;8.32;100.00
39141;BME280;24875;48.436;10.298;2023-03-22T06:26:51;96030.00;;;8.46;100.00
39141;BME280;24875;48.436;10.298;2023-03-22T06:29:17;96027.97;;;8.63;100.00
39141;BME280;24875;48.436;10.298;2023-03-22T06:31:43;96029.53;;;8.80;100.00
39141;BME280;24875;48.436;10.298;2023-03-22T06:34:13;96028.13;;;9.00;100.00
39141;BME280;24875;48.436;10.298;2023-03-22T06:36:39;96026.78;;;9.04;100.00
39141;BME280;24875;48.436;10.298;2023-03-22T06:39:06;96032.22;;;9.03;100.00
39141;BME280;24875;48.436;10.298;2023-03-22T06:41:33;96030.66;;;9.16;100.00
39141;BME280;24875;48.436;10.298;2023-03-22T06:44:00;96039.81;;;9.28;100.00
39141;BME280;24875;48.436;10.298;2023-03-22T06:46:27;96035.34;;;9.28;100.00
39141;BME280;24875;48.436;10.298;2023-03-22T06:48:54;96027.66;;;9.27;100.00
39141;BME280;24875;48.436;10.298;2023-03-22T06:51:22;96027.81;;;9.48;99.28
39141;BME280;24875;48.436;10.298;2023-03-22T06:53:48;96037.22;;;9.65;97.45
39141;BME280;24875;48.436;10.298;2023-03-22T06:56:15;96035.66;;;9.56;97.81
39141;BME280;24875;48.436;10.298;2023-03-22T06:58:41;96030.16;;;9.65;97.29
39141;BME280;24875;48.436;10.298;2023-03-22T07:01:08;96040.50;;;9.67;97.66
39141;BME280;24875;48.436;10.298;2023-03-22T07:03:35;96027.88;;;9.84;96.78
39141;BME280;24875;48.436;10.298;2023-03-22T07:06:02;96035.50;;;9.94;96.41
39141;BME280;24875;48.436;10.298;2023-03-22T07:08:30;96026.03;;;10.07;95.61
39141;BME280;24875;48.436;10.298;2023-03-22T07:10:58;96020.50;;;10.02;97.18
39141;BME280;24875;48.436;10.298;2023-03-22T07:13:25;96031.50;;;10.20;94.35
39141;BME280;24875;48.436;10.298;2023-03-22T07:15:54;96030.25;;;10.31;94.65
39141;BME280;24875;48.436;10.298;2023-03-22T07:18:21;96035.03;;;10.27;93.91
39141;BME280;24875;48.436;10.298;2023-03-22T07:20:47;96038.31;;;10.15;94.42
39141;BME280;24875;48.436;10.298;2023-03-22T07:23:14;96036.25;;;10.39;93.68
39141;BME280;24875;48.436;10.298;2023-03-22T07:25:42;96033.44;;;10.55;94.64
39141;BME280;24875;48.436;10.298;2023-03-22T07:28:08;96039.53;;;10.55;94.18
39141;BME280;24875;48.436;10.298;2023-03-22T07:30:35;96026.81;;;10.73;93.10
39141;BME280;24875;48.436;10.298;2023-03-22T07:33:02;96029.25;;;10.75;93.13
39141;BME280;24875;48.436;10.298;2023-03-22T07:35:29;96028.78;;;10.86;92.64
39141;BME280;24875;48.436;10.298;2023-03-22T07:37:55;96012.69;;;10.95;92.69
39141;BME280;24875;48.436;10.298;2023-03-22T07:40:23;96026.63;;;11.24;91.07
39141;BME280;24875;48.436;10.298;2023-03-22T07:42:52;96028.78;;;11.35;90.01
39141;BME280;24875;48.436;10.298;2023-03-22T07:45:20;96031.41;;;11.35;87.89
39141;BME280;24875;48.436;10.298;2023-03-22T07:47:47;96023.25;;;11.30;88.29
39141;BME280;24875;48.436;10.298;2023-03-22T07:50:14;96026.31;;;11.48;87.52
39141;BME280;24875;48.436;10.298;2023-03-22T07:52:43;96024.75;;;11.54;86.32
39141;BME280;24875;48.436;10.298;2023-03-22T07:55:11;96015.88;;;11.82;84.38
39141;BME280;24875;48.436;10.298;2023-03-22T07:57:38;96020.66;;;11.72;84.93
39141;BME280;24875;48.436;10.298;2023-03-22T08:00:08;96017.56;;;11.89;83.91
39141;BME280;24875;48.436;10.298;2023-03-22T08:02:35;96021.56;;;12.06;84.85
39141;BME280;24875;48.436;10.298;2023-03-22T08:05:03;96014.69;;;12.12;82.31
39141;BME280;24875;48.436;10.298;2023-03-22T08:07:29;96017.47;;;12.24;83.84
39141;BME280;24875;48.436;10.298;2023-03-22T08:09:56;96019.91;;;12.26;81.74
39141;BME280;24875;48.436;10.298;2023-03-22T08:12:23;96036.28;;;12.42;81.23
39141;BME280;24875;48.436;10.298;2023-03-22T08:14:52;96032.94;;;12.27;81.26
39141;BME280;24875;48.436;10.298;2023-03-22T08:17:20;96036.25;;;12.36;80.52
39141;BME280;24875;48.436;10.298;2023-03-22T08:19:46;96043.00;;;12.17;81.71
39141;BME280;24875;48.436;10.298;2023-03-22T08:22:14;96034.56;;;12.28;82.47
39141;BME280;24875;48.436;10.298;2023-03-22T08:24:40;96028.56;;;12.47;81.31
39141;BME280;24875;48.436;10.298;2023-03-22T08:27:07;96030.28;;;12.61;81.30
39141;BME280;24875;48.436;10.298;2023-03-22T08:29:34;96026.91;;;12.74;78.76
39141;BME280;24875;48.436;10.298;2023-03-22T08:32:01;96030.09;;;12.90;76.40
39141;BME280;24875;48.436;10.298;2023-03-22T08:34:35;96035.59;;;12.88;77.01
39141;BME280;24875;48.436;10.298;2023-03-22T08:37:02;96021.03;;;13.12;74.72
39141;BME280;24875;48.436;10.298;2023-03-22T08:39:29;96016.22;;;13.28;77.12
39141;BME280;24875;48.436;10.298;2023-03-22T08:41:55;96017.44;;;13.26;75.54
39141;BME280;24875;48.436;10.298;2023-03-22T08:44:22;96018.69;;;13.42;73.35
39141;BME280;24875;48.436;10.298;2023-03-22T08:46:49;96019.69;;;13.41;74.89
39141;BME280;24875;48.436;10.298;2023-03-22T08:49:15;96023.53;;;13.26;73.90
39141;BME280;24875;48.436;10.298;2023-03-22T08:51:43;96017.50;;;13.58;73.50
39141;BME280;24875;48.436;10.298;2023-03-22T08:54:10;96023.44;;;13.60;73.37
39141;BME280;24875;48.436;10.298;2023-03-22T08:56:37;96020.41;;;13.76;72.02
39141;BME280;24875;48.436;10.298;2023-03-22T08:59:04;96023.66;;;13.71;73.64
39141;BME280;24875;48.436;10.298;2023-03-22T09:01:33;96016.75;;;13.90;73.47
39141;BME280;24875;48.436;10.298;2023-03-22T09:04:00;96019.41;;;13.96;72.10
39141;BME280;24875;48.436;10.298;2023-03-22T09:06:27;96021.06;;;14.10;72.51
39141;BME280;24875;48.436;10.298;2023-03-22T09:08:55;96019.03;;;14.31;70.28
39141;BME280;24875;48.436;10.298;2023-03-22T09:11:22;96027.00;;;14.25;71.41
39141;BME280;24875;48.436;10.298;2023-03-22T09:13:49;96019.66;;;14.40;71.86
39141;BME280;24875;48.436;10.298;2023-03-22T09:16:16;96015.38;;;14.45;71.50
39141;BME280;24875;48.436;10.298;2023-03-22T09:18:43;96017.63;;;14.22;69.84
39141;BME280;24875;48.436;10.298;2023-03-22T09:21:10;96018.63;;;14.28;68.70
39141;BME280;24875;48.436;10.298;2023-03-22T09:23:37;96012.91;;;14.57;69.86
39141;BME280;24875;48.436;10.298;2023-03-22T09:26:07;96012.88;;;14.69;67.14
39141;BME280;24875;48.436;10.298;2023-03-22T09:28:35;96010.03;;;14.64;67.96
39141;BME280;24875;48.436;10.298;2023-03-22T09:31:03;96007.53;;;14.76;68.39
39141;BME280;24875;48.436;10.298;2023-03-22T09:33:31;96015.25;;;15.03;69.11
39141;BME280;24875;48.436;10.298;2023-03-22T09:35:57;96008.31;;;14.96;65.92
39141;BME280;24875;48.436;10.298;2023-03-22T09:38:24;96005.06;;;14.87;67.40
39141;BME280;24875;48.436;10.298;2023-03-22T09:40:53;95997.06;;;15.00;66.08
39141;BME280;24875;48.436;10.298;2023-03-22T09:43:26;95999.84;;;15.18;66.42
39141;BME280;24875;48.436;10.298;2023-03-22T09:45:54;95996.63;;;15.10;65.92
39141;BME280;24875;48.436;10.298;2023-03-22T09:48:26;95990.97;;;15.43;66.26
39141;BME280;24875;48.436;10.298;2023-03-22T09:50:54;95991.78;;;15.44;65.54
39141;BME280;24875;48.436;10.298;2023-03-22T09:53:23;95991.94;;;15.55;64.19
39141;BME280;24875;48.436;10.298;2023-03-22T09:55:54;95993.28;;;15.71;63.12
39141;BME280;24875;48.436;10.298;2023-03-22T09:58:28;95986.44;;;15.57;62.33
39141;BME280;24875;48.436;10.298;2023-03-22T10:00:59;95993.97;;;15.60;61.56
39141;BME280;24875;48.436;10.298;2023-03-22T10:03:57;95983.84;;;15.75;63.24
39141;BME280;24875;48.436;10.298;2023-03-22T10:06:28;95976.47;;;15.77;62.74
39141;BME280;24875;48.436;10.298;2023-03-22T10:09:02;95979.16;;;16.01;63.05
39141;BME280;24875;48.436;10.298;2023-03-22T10:11:40;95974.38;;;15.85;63.33
39141;BME280;24875;48.436;10.298;2023-03-22T10:14:20;95963.22;;;16.01;63.09
39141;BME280;24875;48.436;10.298;2023-03-22T10:16:49;95954.94;;;16.15;63.87
39141;BME280;24875;48.436;10.298;2023-03-22T10:19:20;95948.03;;;16.32;62.73
39141;BME280;24875;48.436;10.298;2023-03-22T10:21:49;95943.03;;;16.42;62.37
39141;BME280;24875;48.436;10.298;2023-03-22T10:24:21;95952.06;;;16.41;63.22
39141;BME280;24875;48.436;10.298;2023-03-22T10:26:50;95938.97;;;16.40;61.96
39141;BME280;24875;48.436;10.298;2023-03-22T10:29:22;95936.75;;;16.54;62.64
39141;BME280;24875;48.436;10.298;2023-03-22T10:31:49;95934.94;;;16.55;61.88
39141;BME280;24875;48.436;10.298;2023-03-22T10:34:19;95931.34;;;16.43;61.87
39141;BME280;24875;48.436;10.298;2023-03-22T10:36:47;95933.28;;;16.36;61.90
39141;BME280;24875;48.436;10.298;2023-03-22T10:39:26;95922.88;;;16.52;61.05
39141;BME280;24875;48.436;10.298;2023-03-22T10:41:55;95922.44;;;16.55;61.61
39141;BME280;24875;48.436;10.298;2023-03-22T10:44:27;95931.66;;;16.71;60.59
39141;BME280;24875;48.436;10.298;2023-03-22T10:46:58;95919.53;;;16.93;60.95
39141;BME280;24875;48.436;10.298;2023-03-22T10:49:34;95930.63;;;17.08;59.30
39141;BME280;24875;48.436;10.298;2023-03-22T10:52:03;95923.00;;;17.11;58.76
39141;BME280;24875;48.436;10.298;2023-03-22T10:54:35;95934.47;;;16.94;58.65
39141;BME280;24875;48.436;10.298;2023-03-22T10:57:02;95926.78;;;16.86;59.02
39141;BME280;24875;48.436;10.298;2023-03-22T10:59:43;95927.38;;;17.06;58.60
39141;BME280;24875;48.436;10.298;2023-03-22T11:02:16;95924.66;;;16.94;59.60
39141;BME280;24875;48.436;10.298;2023-03-22T11:04:46;95924.84;;;17.10;59.30
39141;BME280;24875;48.436;10.298;2023-03-22T11:07:15;95919.22;;;17.36;60.01
39141;BME280;24875;48.436;10.298;2023-03-22T11:09:57;95907.91;;;17.52;58.08
39141;BME280;24875;48.436;10.298;2023-03-22T11:12:24;95919.22;;;17.36;57.42
39141;BME280;24875;48.436;10.298;2023-03-22T11:14:51;95913.97;;;17.59;57.76
39141;BME280;24875;48.436;10.298;2023-03-22T11:17:20;95908.13;;;17.91;58.36
39141;BME280;24875;48.436;10.298;2023-03-22T11:19:51;95904.06;;;17.89;57.28
39141;BME280;24875;48.436;10.298;2023-03-22T11:22:23;95893.53;;;18.17;57.39
39141;BME280;24875;48.436;10.298;2023-03-22T11:24:51;95880.97;;;17.94;56.27
39141;BME280;24875;48.436;10.298;2023-03-22T11:27:19;95890.09;;;17.75;55.10
39141;BME280;24875;48.436;10.298;2023-03-22T11:29:48;95889.28;;;17.64;56.31
39141;BME280;24875;48.436;10.298;2023-03-22T11:32:23;95871.69;;;17.85;55.75
39141;BME280;24875;48.436;10.298;2023-03-22T11:34:58;95872.31;;;17.99;56.48
39141;BME280;24875;48.436;10.298;2023-03-22T11:37:25;95875.78;;;17.99;54.83
39141;BME280;24875;48.436;10.298;2023-03-22T11:39:58;95871.19;;;18.18;53.28
39141;BME280;24875;48.436;10.298;2023-03-22T11:42:26;95870.34;;;18.40;53.68
39141;BME280;24875;48.436;10.298;2023-03-22T11:44:54;95859.19;;;18.43;53.89
39141;BME280;24875;48.436;10.298;2023-03-22T11:47:24;95868.00;;;18.66;52.65
39141;BME280;24875;48.436;10.298;2023-03-22T11:49:52;95865.72;;;18.35;51.77
39141;BME280;24875;48.436;10.298;2023-03-22T11:52:23;95859.44;;;18.41;50.66
39141;BME280;24875;48.436;10.298;2023-03-22T11:54:51;95862.34;;;18.51;49.03
39141;BME280;24875;48.436;10.298;2023-03-22T11:57:21;95864.47;;;18.77;48.98
39141;BME280;24875;48.436;10.298;2023-03-22T11:59:54;95863.69;;;18.77;48.21
39141;BME280;24875;48.436;10.298;2023-03-22T12:02:25;95862.44;;;18.56;47.49
39141;BME280;24875;48.436;10.298;2023-03-22T12:04:57;95857.53;;;18.76;47.62
39141;BME280;24875;48.436;10.298;2023-03-22T12:07:27;95852.50;;;18.80;46.96
39141;BME280;24875;48.436;10.298;2023-03-22T12:09:57;95867.16;;;18.77;46.61
39141;BME280;24875;48.436;10.298;2023-03-22T12:12:29;95854.88;;;18.76;45.08
39141;BME280;24875;48.436;10.298;2023-03-22T12:14:59;95851.72;;;19.18;45.55
39141;BME280;24875;48.436;10.298;2023-03-22T12:17:34;95843.78;;;18.95;45.36
39141;BME280;24875;48.436;10.298;2023-03-22T12:20:05;95846.75;;;18.71;45.53
39141;BME280;24875;48.436;10.298;2023-03-22T12:22:37;95840.19;;;18.51;45.94
39141;BME280;24875;48.436;10.298;2023-03-22T12:25:11;95838.25;;;18.74;46.44
39141;BME280;24875;48.436;10.298;2023-03-22T12:27:40;95831.13;;;18.91;46.49
39141;BME280;24875;48.436;10.298;2023-03-22T12:30:12;95827.88;;;19.45;45.78
39141;BME280;24875;48.436;10.298;2023-03-22T12:32:44;95819.94;;;19.50;43.92
39141;BME280;24875;48.436;10.298;2023-03-22T12:35:16;95822.38;;;19.67;44.91
39141;BME280;24875;48.436;10.298;2023-03-22T12:37:45;95820.75;;;19.34;44.81
39141;BME280;24875;48.436;10.298;2023-03-22T12:40:19;95820.38;;;19.14;44.86
39141;BME280;24875;48.436;10.298;2023-03-22T12:42:53;95817.56;;;19.20;44.72
39141;BME280;24875;48.436;10.298;2023-03-22T12:45:25;95821.38;;;19.24;45.01
39141;BME280;24875;48.436;10.298;2023-03-22T12:47:58;95811.09;;;19.33;46.08
39141;BME280;24875;48.436;10.298;2023-03-22T12:50:30;95805.84;;;19.38;44.03
39141;BME280;24875;48.436;10.298;2023-03-22T12:52:59;95806.16;;;19.25;44.70
39141;BME280;24875;48.436;10.298;2023-03-22T12:55:28;95797.69;;;19.60;44.59
39141;BME280;24875;48.436;10.298;2023-03-22T12:57:55;95799.22;;;19.89;44.08
39141;BME280;24875;48.436;10.298;2023-03-22T13:00:27;95787.56;;;19.79;42.94
39141;BME280;24875;48.436;10.298;2023-03-22T13:02:58;95795.09;;;19.65;43.28
39141;BME280;24875;48.436;10.298;2023-03-22T13:05:28;95797.16;;;19.91;43.80